sensor_id;sensor_type;location;lat;lon;timestamp;temperature;humidity
46552;DHT22;32278;51.810;4.712;2023-01-28T00:01:57;3.50;99.90
46552;DHT22;32278;51.810;4.712;2023-01-28T00:04:22;3.50;99.90
46552;DHT22;32278;51.810;4.712;2023-01-28T00:06:48;3.60;99.90
46552;DHT22;32278;51.810;4.712;2023-01-28T00:09:13;3.50;99.90
46552;DHT22;32278;51.810;4.712;2023-01-28T00:11:39;3.50;99.90
46552;DHT22;32278;51.810;4.712;2023-01-28T00:14:05;3.50;99.90
46552;DHT22;32278;51.810;4.712;2023-01-28T00:16:31;3.50;99.90
46552;DHT22;32278;51.810;4.712;2023-01-28T00:18:56;3.70;99.90
46552;DHT22;32278;51.810;4.712;2023-01-28T00:21:22;3.70;99.90
46552;DHT22;32278;51.810;4.712;2023-01-28T00:23:51;3.60;99.90
46552;DHT22;32278;51.810;4.712;2023-01-28T00:26:18;3.50;99.90
46552;DHT22;32278;51.810;4.712;2023-01-28T00:28:44;3.60;99.90
46552;DHT22;32278;51.810;4.712;2023-01-28T00:31:30;3.50;99.90
46552;DHT22;32278;51.810;4.712;2023-01-28T00:33:56;3.50;99.90
46552;DHT22;32278;51.810;4.712;2023-01-28T00:36:22;3.60;99.90
46552;DHT22;32278;51.810;4.712;2023-01-28T00:38:49;3.80;99.90
46552;DHT22;32278;51.810;4.712;2023-01-28T00:41:16;3.80;99.90
46552;DHT22;32278;51.810;4.712;2023-01-28T00:43:42;3.90;99.90
46552;DHT22;32278;51.810;4.712;2023-01-28T00:46:09;3.90;99.90
46552;DHT22;32278;51.810;4.712;2023-01-28T00:48:35;4.00;99.90
46552;DHT22;32278;51.810;4.712;2023-01-28T00:51:02;3.80;99.90
46552;DHT22;32278;51.810;4.712;2023-01-28T00:53:27;3.70;99.90
46552;DHT22;32278;51.810;4.712;2023-01-28T00:55:53;3.60;99.90
46552;DHT22;32278;51.810;4.712;2023-01-28T00:58:19;3.50;99.90
46552;DHT22;32278;51.810;4.712;2023-01-28T01:00:44;3.50;99.90
46552;DHT22;32278;51.810;4.712;2023-01-28T01:03:10;3.50;99.90
46552;DHT22;32278;51.810;4.712;2023-01-28T01:05:35;3.50;99.90
46552;DHT22;32278;51.810;4.712;2023-01-28T01:08:01;3.40;99.90
46552;DHT22;32278;51.810;4.712;2023-01-28T01:10:27;3.40;99.90
46552;DHT22;32278;51.810;4.712;2023-01-28T01:12:52;3.40;99.90
46552;DHT22;32278;51.810;4.712;2023-01-28T01:15:18;3.30;99.90
46552;DHT22;32278;51.810;4.712;2023-01-28T01:17:44;3.40;99.90
46552;DHT22;32278;51.810;4.712;2023-01-28T01:20:11;3.40;99.90
46552;DHT22;32278;51.810;4.712;2023-01-28T01:22:37;3.40;99.90
46552;DHT22;32278;51.810;4.712;2023-01-28T01:25:03;3.60;99.90
46552;DHT22;32278;51.810;4.712;2023-01-28T01:27:29;3.50;99.90
46552;DHT22;32278;51.810;4.712;2023-01-28T01:29:55;3.50;99.90
46552;DHT22;32278;51.810;4.712;2023-01-28T01:32:21;3.40;99.90
46552;DHT22;32278;51.810;4.712;2023-01-28T01:34:46;3.30;99.90
46552;DHT22;32278;51.810;4.712;2023-01-28T01:37:12;3.20;99.90
46552;DHT22;32278;51.810;4.712;2023-01-28T01:39:38;3.30;99.90
46552;DHT22;32278;51.810;4.712;2023-01-28T01:42:03;3.30;99.90
46552;DHT22;32278;51.810;4.712;2023-01-28T01:47:13;3.30;99.90
46552;DHT22;32278;51.810;4.712;2023-01-28T01:49:40;3.20;99.90
46552;DHT22;32278;51.810;4.712;2023-01-28T01:52:07;3.20;99.90
46552;DHT22;32278;51.810;4.712;2023-01-28T01:54:34;3.20;99.90
46552;DHT22;32278;51.810;4.712;2023-01-28T01:57:01;3.20;99.90
46552;DHT22;32278;51.810;4.712;2023-01-28T01:59:27;3.20;99.90
46552;DHT22;32278;51.810;4.712;2023-01-28T02:01:54;3.20;99.90
46552;DHT22;32278;51.810;4.712;2023-01-28T02:04:36;3.20;99.90
46552;DHT22;32278;51.810;4.712;2023-01-28T02:07:03;3.20;99.90
46552;DHT22;32278;51.810;4.712;2023-01-28T02:09:30;3.30;99.90
46552;DHT22;32278;51.810;4.712;2023-01-28T02:12:18;3.30;99.90
46552;DHT22;32278;51.810;4.712;2023-01-28T02:15:42;3.30;99.90
46552;DHT22;32278;51.810;4.712;2023-01-28T02:17:37;3.30;99.90
46552;DHT22;32278;51.810;4.712;2023-01-28T02:20:03;3.20;99.90
46552;DHT22;32278;51.810;4.712;2023-01-28T02:30:04;3.20;99.90
46552;DHT22;32278;51.810;4.712;2023-01-28T02:35:28;3.20;99.90
46552;DHT22;32278;51.810;4.712;2023-01-28T02:37:53;3.20;99.90
46552;DHT22;32278;51.810;4.712;2023-01-28T02:40:24;3.40;99.90
46552;DHT22;32278;51.810;4.712;2023-01-28T02:42:51;3.40;99.90
46552;DHT22;32278;51.810;4.712;2023-01-28T02:45:19;3.40;99.90
46552;DHT22;32278;51.810;4.712;2023-01-28T02:47:45;3.40;99.90
46552;DHT22;32278;51.810;4.712;2023-01-28T02:50:23;3.40;99.90
46552;DHT22;32278;51.810;4.712;2023-01-28T02:53:25;3.30;99.90
46552;DHT22;32278;51.810;4.712;2023-01-28T03:06:32;3.00;99.90
46552;DHT22;32278;51.810;4.712;2023-01-28T03:09:02;3.00;99.90
46552;DHT22;32278;51.810;4.712;2023-01-28T03:11:54;3.00;99.90
46552;DHT22;32278;51.810;4.712;2023-01-28T03:14:39;3.10;99.90
46552;DHT22;32278;51.810;4.712;2023-01-28T03:20:12;3.00;99.90
46552;DHT22;32278;51.810;4.712;2023-01-28T03:22:56;3.00;99.90
46552;DHT22;32278;51.810;4.712;2023-01-28T03:25:43;3.10;99.90
46552;DHT22;32278;51.810;4.712;2023-01-28T03:28:30;3.20;99.90
46552;DHT22;32278;51.810;4.712;2023-01-28T03:31:16;3.20;99.90
46552;DHT22;32278;51.810;4.712;2023-01-28T03:34:01;3.10;99.90
46552;DHT22;32278;51.810;4.712;2023-01-28T03:36:47;3.10;99.90
46552;DHT22;32278;51.810;4.712;2023-01-28T03:39:21;3.00;99.90
46552;DHT22;32278;51.810;4.712;2023-01-28T03:42:01;3.00;99.90
46552;DHT22;32278;51.810;4.712;2023-01-28T03:44:28;3.00;99.90
46552;DHT22;32278;51.810;4.712;2023-01-28T03:47:12;3.00;99.90
46552;DHT22;32278;51.810;4.712;2023-01-28T03:49:41;3.00;99.90
46552;DHT22;32278;51.810;4.712;2023-01-28T03:52:08;2.90;99.90
46552;DHT22;32278;51.810;4.712;2023-01-28T03:54:34;3.00;99.90
46552;DHT22;32278;51.810;4.712;2023-01-28T03:56:59;3.00;99.90
46552;DHT22;32278;51.810;4.712;2023-01-28T03:59:25;3.00;99.90
46552;DHT22;32278;51.810;4.712;2023-01-28T04:01:51;3.10;99.90
46552;DHT22;32278;51.810;4.712;2023-01-28T04:04:16;3.10;99.90
46552;DHT22;32278;51.810;4.712;2023-01-28T04:06:51;3.10;99.90
46552;DHT22;32278;51.810;4.712;2023-01-28T04:09:18;3.00;99.90
46552;DHT22;32278;51.810;4.712;2023-01-28T04:11:43;3.00;99.90
46552;DHT22;32278;51.810;4.712;2023-01-28T04:14:09;3.00;99.90
46552;DHT22;32278;51.810;4.712;2023-01-28T04:16:35;3.00;99.90
46552;DHT22;32278;51.810;4.712;2023-01-28T04:19:00;3.00;99.90
46552;DHT22;32278;51.810;4.712;2023-01-28T04:21:26;3.20;99.90
46552;DHT22;32278;51.810;4.712;2023-01-28T04:23:51;3.10;99.90
46552;DHT22;32278;51.810;4.712;2023-01-28T04:26:17;3.20;99.90
46552;DHT22;32278;51.810;4.712;2023-01-28T04:28:42;3.20;99.90
46552;DHT22;32278;51.810;4.712;2023-01-28T04:31:07;3.20;99.90
46552;DHT22;32278;51.810;4.712;2023-01-28T04:33:33;3.20;99.90
46552;DHT22;32278;51.810;4.712;2023-01-28T04:35:58;3.10;99.90
46552;DHT22;32278;51.810;4.712;2023-01-28T04:38:24;3.10;99.90
46552;DHT22;32278;51.810;4.712;2023-01-28T04:40:50;2.90;99.90
46552;DHT22;32278;51.810;4.712;2023-01-28T04:43:16;2.90;99.90
46552;DHT22;32278;51.810;4.712;2023-01-28T04:45:42;2.90;99.90
46552;DHT22;32278;51.810;4.712;2023-01-28T04:48:07;3.00;99.90
46552;DHT22;32278;51.810;4.712;2023-01-28T04:50:33;3.00;99.90
46552;DHT22;32278;51.810;4.712;2023-01-28T04:52:59;3.00;99.90
46552;DHT22;32278;51.810;4.712;2023-01-28T04:55:24;2.90;99.90
46552;DHT22;32278;51.810;4.712;2023-01-28T04:57:50;2.90;99.90
46552;DHT22;32278;51.810;4.712;2023-01-28T05:00:15;3.00;99.90
46552;DHT22;32278;51.810;4.712;2023-01-28T05:02:41;3.10;99.90
46552;DHT22;32278;51.810;4.712;2023-01-28T05:05:07;3.00;99.90
46552;DHT22;32278;51.810;4.712;2023-01-28T05:07:35;3.10;99.90
46552;DHT22;32278;51.810;4.712;2023-01-28T05:10:01;3.20;99.90
46552;DHT22;32278;51.810;4.712;2023-01-28T05:12:26;3.10;99.90
46552;DHT22;32278;51.810;4.712;2023-01-28T05:14:52;3.00;99.90
46552;DHT22;32278;51.810;4.712;2023-01-28T05:17:17;3.10;99.90
46552;DHT22;32278;51.810;4.712;2023-01-28T05:19:43;3.00;99.90
46552;DHT22;32278;51.810;4.712;2023-01-28T05:22:10;3.00;99.90
46552;DHT22;32278;51.810;4.712;2023-01-28T05:24:36;3.10;99.90
46552;DHT22;32278;51.810;4.712;2023-01-28T05:27:01;3.20;99.90
46552;DHT22;32278;51.810;4.712;2023-01-28T05:29:27;3.10;99.90
46552;DHT22;32278;51.810;4.712;2023-01-28T05:31:52;2.90;99.90
46552;DHT22;32278;51.810;4.712;2023-01-28T05:34:18;2.90;99.90
46552;DHT22;32278;51.810;4.712;2023-01-28T05:36:43;2.90;99.90
46552;DHT22;32278;51.810;4.712;2023-01-28T05:39:09;3.00;99.90
46552;DHT22;32278;51.810;4.712;2023-01-28T05:41:34;3.00;99.90
46552;DHT22;32278;51.810;4.712;2023-01-28T05:44:00;3.00;99.90
46552;DHT22;32278;51.810;4.712;2023-01-28T05:46:25;3.20;99.90
46552;DHT22;32278;51.810;4.712;2023-01-28T05:48:51;3.30;99.90
46552;DHT22;32278;51.810;4.712;2023-01-28T05:51:16;3.20;99.90
46552;DHT22;32278;51.810;4.712;2023-01-28T05:53:42;3.20;99.90
46552;DHT22;32278;51.810;4.712;2023-01-28T05:56:07;3.30;99.90
46552;DHT22;32278;51.810;4.712;2023-01-28T05:58:33;3.20;99.90
46552;DHT22;32278;51.810;4.712;2023-01-28T06:00:58;3.10;99.90
46552;DHT22;32278;51.810;4.712;2023-01-28T06:03:24;3.00;99.90
46552;DHT22;32278;51.810;4.712;2023-01-28T06:05:49;3.10;99.90
46552;DHT22;32278;51.810;4.712;2023-01-28T06:08:15;3.10;99.90
46552;DHT22;32278;51.810;4.712;2023-01-28T06:10:40;3.20;99.90
46552;DHT22;32278;51.810;4.712;2023-01-28T06:13:06;3.30;99.90
46552;DHT22;32278;51.810;4.712;2023-01-28T06:15:31;3.20;99.90
46552;DHT22;32278;51.810;4.712;2023-01-28T06:17:57;3.10;99.90
46552;DHT22;32278;51.810;4.712;2023-01-28T06:20:23;3.00;99.90
46552;DHT22;32278;51.810;4.712;2023-01-28T06:22:49;3.00;99.90
46552;DHT22;32278;51.810;4.712;2023-01-28T06:25:15;2.80;99.90
46552;DHT22;32278;51.810;4.712;2023-01-28T06:27:40;2.80;99.90
46552;DHT22;32278;51.810;4.712;2023-01-28T06:30:06;2.80;99.90
46552;DHT22;32278;51.810;4.712;2023-01-28T06:32:32;2.80;99.90
46552;DHT22;32278;51.810;4.712;2023-01-28T06:34:58;2.80;99.90
46552;DHT22;32278;51.810;4.712;2023-01-28T06:37:23;2.80;99.90
46552;DHT22;32278;51.810;4.712;2023-01-28T06:39:49;2.80;99.90
46552;DHT22;32278;51.810;4.712;2023-01-28T06:42:14;2.70;99.90
46552;DHT22;32278;51.810;4.712;2023-01-28T06:44:40;2.70;99.90
46552;DHT22;32278;51.810;4.712;2023-01-28T06:47:05;2.70;99.90
46552;DHT22;32278;51.810;4.712;2023-01-28T06:49:31;2.70;99.90
46552;DHT22;32278;51.810;4.712;2023-01-28T06:51:57;2.80;99.90
46552;DHT22;32278;51.810;4.712;2023-01-28T06:54:22;2.80;99.90
46552;DHT22;32278;51.810;4.712;2023-01-28T06:56:48;2.80;99.90
46552;DHT22;32278;51.810;4.712;2023-01-28T06:59:13;2.80;99.90
46552;DHT22;32278;51.810;4.712;2023-01-28T07:01:39;2.90;99.90
46552;DHT22;32278;51.810;4.712;2023-01-28T07:04:04;2.80;99.90
46552;DHT22;32278;51.810;4.712;2023-01-28T07:06:30;2.80;99.90
46552;DHT22;32278;51.810;4.712;2023-01-28T07:08:56;2.80;99.90
46552;DHT22;32278;51.810;4.712;2023-01-28T07:11:21;2.90;99.90
46552;DHT22;32278;51.810;4.712;2023-01-28T07:13:48;2.80;99.90
46552;DHT22;32278;51.810;4.712;2023-01-28T07:16:14;2.70;99.90
46552;DHT22;32278;51.810;4.712;2023-01-28T07:18:39;2.70;99.90
46552;DHT22;32278;51.810;4.712;2023-01-28T07:21:05;2.70;99.90
46552;DHT22;32278;51.810;4.712;2023-01-28T07:23:31;2.60;99.90
46552;DHT22;32278;51.810;4.712;2023-01-28T07:26:00;2.60;99.90
46552;DHT22;32278;51.810;4.712;2023-01-28T07:28:26;2.60;99.90
46552;DHT22;32278;51.810;4.712;2023-01-28T07:30:51;2.60;99.90
46552;DHT22;32278;51.810;4.712;2023-01-28T07:33:17;2.50;99.90
46552;DHT22;32278;51.810;4.712;2023-01-28T07:35:43;2.50;99.90
46552;DHT22;32278;51.810;4.712;2023-01-28T07:38:09;2.60;99.90
46552;DHT22;32278;51.810;4.712;2023-01-28T07:40:35;2.50;99.90
46552;DHT22;32278;51.810;4.712;2023-01-28T07:43:00;2.50;99.90
46552;DHT22;32278;51.810;4.712;2023-01-28T07:45:26;2.50;99.90
46552;DHT22;32278;51.810;4.712;2023-01-28T07:48:02;2.60;99.90
46552;DHT22;32278;51.810;4.712;2023-01-28T07:50:28;2.60;99.90
46552;DHT22;32278;51.810;4.712;2023-01-28T07:52:55;2.60;99.90
46552;DHT22;32278;51.810;4.712;2023-01-28T07:55:21;2.60;99.90
46552;DHT22;32278;51.810;4.712;2023-01-28T07:57:47;2.60;99.90
46552;DHT22;32278;51.810;4.712;2023-01-28T08:00:13;2.60;99.90
46552;DHT22;32278;51.810;4.712;2023-01-28T08:02:39;2.70;99.90
46552;DHT22;32278;51.810;4.712;2023-01-28T08:05:04;2.70;99.90
46552;DHT22;32278;51.810;4.712;2023-01-28T08:07:30;2.70;99.90
46552;DHT22;32278;51.810;4.712;2023-01-28T08:09:55;2.70;99.90
46552;DHT22;32278;51.810;4.712;2023-01-28T08:12:21;2.80;99.90
46552;DHT22;32278;51.810;4.712;2023-01-28T08:14:46;2.70;99.90
46552;DHT22;32278;51.810;4.712;2023-01-28T08:17:11;2.70;99.90
46552;DHT22;32278;51.810;4.712;2023-01-28T08:19:37;2.70;99.90
46552;DHT22;32278;51.810;4.712;2023-01-28T08:22:02;2.80;99.90
46552;DHT22;32278;51.810;4.712;2023-01-28T08:24:28;2.80;99.90
46552;DHT22;32278;51.810;4.712;2023-01-28T08:26:53;2.90;99.90
46552;DHT22;32278;51.810;4.712;2023-01-28T08:29:19;2.80;99.90
46552;DHT22;32278;51.810;4.712;2023-01-28T08:31:44;2.80;99.90
46552;DHT22;32278;51.810;4.712;2023-01-28T08:34:10;2.80;99.90
46552;DHT22;32278;51.810;4.712;2023-01-28T08:36:36;2.80;99.90
46552;DHT22;32278;51.810;4.712;2023-01-28T08:39:01;2.80;99.90
46552;DHT22;32278;51.810;4.712;2023-01-28T08:41:28;2.80;99.90
46552;DHT22;32278;51.810;4.712;2023-01-28T08:43:53;2.80;99.90
46552;DHT22;32278;51.810;4.712;2023-01-28T08:46:19;2.80;99.90
46552;DHT22;32278;51.810;4.712;2023-01-28T08:48:44;2.80;99.90
46552;DHT22;32278;51.810;4.712;2023-01-28T08:51:10;3.00;99.90
46552;DHT22;32278;51.810;4.712;2023-01-28T08:53:35;3.00;99.90
46552;DHT22;32278;51.810;4.712;2023-01-28T08:56:01;3.10;99.90
46552;DHT22;32278;51.810;4.712;2023-01-28T08:58:26;3.10;99.90
46552;DHT22;32278;51.810;4.712;2023-01-28T09:00:52;3.00;99.90
46552;DHT22;32278;51.810;4.712;2023-01-28T09:03:17;2.80;99.90
46552;DHT22;32278;51.810;4.712;2023-01-28T09:05:43;2.90;99.90
46552;DHT22;32278;51.810;4.712;2023-01-28T09:08:09;2.90;99.90
46552;DHT22;32278;51.810;4.712;2023-01-28T09:10:35;3.00;99.90
46552;DHT22;32278;51.810;4.712;2023-01-28T09:13:07;2.80;99.90
46552;DHT22;32278;51.810;4.712;2023-01-28T09:15:33;2.80;99.90
46552;DHT22;32278;51.810;4.712;2023-01-28T09:17:59;2.80;99.90
46552;DHT22;32278;51.810;4.712;2023-01-28T09:20:25;2.70;99.90
46552;DHT22;32278;51.810;4.712;2023-01-28T09:22:50;2.80;99.90
46552;DHT22;32278;51.810;4.712;2023-01-28T09:25:16;2.80;99.90
46552;DHT22;32278;51.810;4.712;2023-01-28T09:27:41;2.80;99.90
46552;DHT22;32278;51.810;4.712;2023-01-28T09:30:07;2.80;99.90
46552;DHT22;32278;51.810;4.712;2023-01-28T09:32:34;2.80;99.90
46552;DHT22;32278;51.810;4.712;2023-01-28T09:35:00;2.90;99.90
46552;DHT22;32278;51.810;4.712;2023-01-28T09:37:25;2.90;99.90
46552;DHT22;32278;51.810;4.712;2023-01-28T09:39:51;2.90;99.90
46552;DHT22;32278;51.810;4.712;2023-01-28T09:42:30;2.90;99.90
46552;DHT22;32278;51.810;4.712;2023-01-28T09:47:34;3.10;99.90
46552;DHT22;32278;51.810;4.712;2023-01-28T09:50:04;3.10;99.90
46552;DHT22;32278;51.810;4.712;2023-01-28T09:52:32;3.10;99.90
46552;DHT22;32278;51.810;4.712;2023-01-28T09:55:00;3.30;99.90
46552;DHT22;32278;51.810;4.712;2023-01-28T09:57:37;3.40;99.90
46552;DHT22;32278;51.810;4.712;2023-01-28T10:00:16;3.30;99.90
46552;DHT22;32278;51.810;4.712;2023-01-28T10:05:31;3.40;99.90
46552;DHT22;32278;51.810;4.712;2023-01-28T10:08:10;3.40;99.90
46552;DHT22;32278;51.810;4.712;2023-01-28T10:10:39;3.40;99.90
46552;DHT22;32278;51.810;4.712;2023-01-28T10:18:07;3.20;99.90
46552;DHT22;32278;51.810;4.712;2023-01-28T10:20:47;3.20;99.90
46552;DHT22;32278;51.810;4.712;2023-01-28T10:23:21;3.40;99.90
46552;DHT22;32278;51.810;4.712;2023-01-28T10:25:48;3.50;99.90
46552;DHT22;32278;51.810;4.712;2023-01-28T10:28:18;3.70;99.90
46552;DHT22;32278;51.810;4.712;2023-01-28T10:30:44;3.90;99.90
46552;DHT22;32278;51.810;4.712;2023-01-28T10:33:18;3.90;99.90
46552;DHT22;32278;51.810;4.712;2023-01-28T10:35:44;4.00;99.90
46552;DHT22;32278;51.810;4.712;2023-01-28T10:38:13;3.90;99.90
46552;DHT22;32278;51.810;4.712;2023-01-28T10:40:42;4.00;99.90
46552;DHT22;32278;51.810;4.712;2023-01-28T10:43:07;4.00;99.90
46552;DHT22;32278;51.810;4.712;2023-01-28T10:45:41;4.00;99.90
46552;DHT22;32278;51.810;4.712;2023-01-28T10:48:20;3.90;99.90
46552;DHT22;32278;51.810;4.712;2023-01-28T10:50:51;4.30;99.90
46552;DHT22;32278;51.810;4.712;2023-01-28T10:53:17;4.70;99.90
46552;DHT22;32278;51.810;4.712;2023-01-28T10:55:49;4.60;99.90
46552;DHT22;32278;51.810;4.712;2023-01-28T10:58:20;4.50;99.90
46552;DHT22;32278;51.810;4.712;2023-01-28T11:00:50;4.50;99.90
46552;DHT22;32278;51.810;4.712;2023-01-28T11:03:19;4.50;99.90
46552;DHT22;32278;51.810;4.712;2023-01-28T11:05:52;4.50;99.90
46552;DHT22;32278;51.810;4.712;2023-01-28T11:08:18;4.30;99.90
46552;DHT22;32278;51.810;4.712;2023-01-28T11:10:44;4.40;99.90
46552;DHT22;32278;51.810;4.712;2023-01-28T11:13:14;4.70;99.90
46552;DHT22;32278;51.810;4.712;2023-01-28T11:15:50;4.80;99.90
46552;DHT22;32278;51.810;4.712;2023-01-28T11:18:21;4.60;99.90
46552;DHT22;32278;51.810;4.712;2023-01-28T11:20:50;4.80;99.90
46552;DHT22;32278;51.810;4.712;2023-01-28T11:23:17;5.00;99.90
46552;DHT22;32278;51.810;4.712;2023-01-28T11:25:43;5.30;99.90
46552;DHT22;32278;51.810;4.712;2023-01-28T11:28:14;5.20;99.90
46552;DHT22;32278;51.810;4.712;2023-01-28T11:30:41;5.00;99.90
46552;DHT22;32278;51.810;4.712;2023-01-28T11:33:15;5.00;99.90
46552;DHT22;32278;51.810;4.712;2023-01-28T11:35:41;5.00;99.90
46552;DHT22;32278;51.810;4.712;2023-01-28T11:38:16;5.10;99.90
46552;DHT22;32278;51.810;4.712;2023-01-28T11:40:51;5.50;99.90
46552;DHT22;32278;51.810;4.712;2023-01-28T11:43:18;5.50;99.90
46552;DHT22;32278;51.810;4.712;2023-01-28T11:48:25;6.40;99.90
46552;DHT22;32278;51.810;4.712;2023-01-28T11:51:01;5.90;99.90
46552;DHT22;32278;51.810;4.712;2023-01-28T12:03:54;6.70;99.90
46552;DHT22;32278;51.810;4.712;2023-01-28T12:06:29;6.60;99.90
46552;DHT22;32278;51.810;4.712;2023-01-28T12:09:15;6.90;99.90
46552;DHT22;32278;51.810;4.712;2023-01-28T12:11:48;7.50;99.90
46552;DHT22;32278;51.810;4.712;2023-01-28T12:14:54;8.00;99.90
46552;DHT22;32278;51.810;4.712;2023-01-28T12:19:52;8.30;99.90
46552;DHT22;32278;51.810;4.712;2023-01-28T12:22:29;8.30;99.90
46552;DHT22;32278;51.810;4.712;2023-01-28T12:27:49;6.70;99.90
46552;DHT22;32278;51.810;4.712;2023-01-28T12:42:49;6.20;99.90
46552;DHT22;32278;51.810;4.712;2023-01-28T12:48:12;5.60;99.90
46552;DHT22;32278;51.810;4.712;2023-01-28T12:50:47;5.50;99.90
46552;DHT22;32278;51.810;4.712;2023-01-28T12:56:33;6.00;99.90
46552;DHT22;32278;51.810;4.712;2023-01-28T13:01:36;6.50;99.90
46552;DHT22;32278;51.810;4.712;2023-01-28T13:04:04;6.60;99.90
46552;DHT22;32278;51.810;4.712;2023-01-28T13:06:32;6.10;99.90
46552;DHT22;32278;51.810;4.712;2023-01-28T13:09:01;6.10;99.90
46552;DHT22;32278;51.810;4.712;2023-01-28T13:11:33;6.70;99.90
46552;DHT22;32278;51.810;4.712;2023-01-28T13:14:00;7.40;99.90
46552;DHT22;32278;51.810;4.712;2023-01-28T13:16:26;7.70;99.90
46552;DHT22;32278;51.810;4.712;2023-01-28T13:18:52;7.70;99.90
46552;DHT22;32278;51.810;4.712;2023-01-28T13:23:50;8.40;99.90
46552;DHT22;32278;51.810;4.712;2023-01-28T13:28:45;7.50;99.90
46552;DHT22;32278;51.810;4.712;2023-01-28T13:31:12;7.20;99.90
46552;DHT22;32278;51.810;4.712;2023-01-28T13:33:42;6.50;99.90
46552;DHT22;32278;51.810;4.712;2023-01-28T13:38:36;6.10;99.90
46552;DHT22;32278;51.810;4.712;2023-01-28T13:41:02;6.40;99.90
46552;DHT22;32278;51.810;4.712;2023-01-28T13:46:03;6.10;99.90
46552;DHT22;32278;51.810;4.712;2023-01-28T13:48:48;6.00;99.90
46552;DHT22;32278;51.810;4.712;2023-01-28T13:51:17;5.50;99.90
46552;DHT22;32278;51.810;4.712;2023-01-28T13:53:44;5.60;99.90
46552;DHT22;32278;51.810;4.712;2023-01-28T13:56:16;5.70;99.90
46552;DHT22;32278;51.810;4.712;2023-01-28T14:11:45;5.90;99.90
46552;DHT22;32278;51.810;4.712;2023-01-28T14:16:46;6.10;99.90
46552;DHT22;32278;51.810;4.712;2023-01-28T14:19:17;6.10;99.90
46552;DHT22;32278;51.810;4.712;2023-01-28T14:21:43;6.00;99.90
46552;DHT22;32278;51.810;4.712;2023-01-28T14:24:16;6.00;99.90
46552;DHT22;32278;51.810;4.712;2023-01-28T14:26:49;5.90;99.90
46552;DHT22;32278;51.810;4.712;2023-01-28T14:31:42;5.60;99.90
46552;DHT22;32278;51.810;4.712;2023-01-28T14:34:17;5.20;99.90
46552;DHT22;32278;51.810;4.712;2023-01-28T14:36:44;5.40;99.90
46552;DHT22;32278;51.810;4.712;2023-01-28T14:39:20;5.40;99.90
46552;DHT22;32278;51.810;4.712;2023-01-28T14:41:48;5.10;99.90
46552;DHT22;32278;51.810;4.712;2023-01-28T14:44:19;5.20;99.90
46552;DHT22;32278;51.810;4.712;2023-01-28T14:46:50;5.30;99.90
46552;DHT22;32278;51.810;4.712;2023-01-28T14:49:34;5.40;99.90
46552;DHT22;32278;51.810;4.712;2023-01-28T14:57:09;5.20;99.90
46552;DHT22;32278;51.810;4.712;2023-01-28T14:59:45;5.30;99.90
46552;DHT22;32278;51.810;4.712;2023-01-28T15:04:43;5.10;99.90
46552;DHT22;32278;51.810;4.712;2023-01-28T15:07:16;5.10;99.90
46552;DHT22;32278;51.810;4.712;2023-01-28T15:09:42;5.10;99.90
46552;DHT22;32278;51.810;4.712;2023-01-28T15:12:08;4.90;99.90
46552;DHT22;32278;51.810;4.712;2023-01-28T15:14:34;4.80;99.90
46552;DHT22;32278;51.810;4.712;2023-01-28T15:16:59;4.90;99.90
46552;DHT22;32278;51.810;4.712;2023-01-28T15:19:32;4.80;99.90
46552;DHT22;32278;51.810;4.712;2023-01-28T15:22:03;4.80;99.90
46552;DHT22;32278;51.810;4.712;2023-01-28T15:24:30;4.80;99.90
46552;DHT22;32278;51.810;4.712;2023-01-28T15:26:56;4.80;99.90
46552;DHT22;32278;51.810;4.712;2023-01-28T15:29:22;4.90;99.90
46552;DHT22;32278;51.810;4.712;2023-01-28T15:31:48;4.90;99.90
46552;DHT22;32278;51.810;4.712;2023-01-28T15:34:15;5.00;99.90
46552;DHT22;32278;51.810;4.712;2023-01-28T15:36:41;5.00;99.90
46552;DHT22;32278;51.810;4.712;2023-01-28T15:39:13;5.00;99.90
46552;DHT22;32278;51.810;4.712;2023-01-28T15:41:40;5.20;99.90
46552;DHT22;32278;51.810;4.712;2023-01-28T15:44:17;5.10;99.90
46552;DHT22;32278;51.810;4.712;2023-01-28T15:46:43;5.30;99.90
46552;DHT22;32278;51.810;4.712;2023-01-28T15:49:12;5.40;99.90
46552;DHT22;32278;51.810;4.712;2023-01-28T15:51:39;5.60;99.90
46552;DHT22;32278;51.810;4.712;2023-01-28T15:54:08;5.70;99.90
46552;DHT22;32278;51.810;4.712;2023-01-28T15:56:34;5.70;99.90
46552;DHT22;32278;51.810;4.712;2023-01-28T15:59:33;5.70;99.90
46552;DHT22;32278;51.810;4.712;2023-01-28T16:04:36;5.70;99.90
46552;DHT22;32278;51.810;4.712;2023-01-28T16:07:02;5.70;99.90
46552;DHT22;32278;51.810;4.712;2023-01-28T16:09:29;5.70;99.90
46552;DHT22;32278;51.810;4.712;2023-01-28T16:12:05;5.50;99.90
46552;DHT22;32278;51.810;4.712;2023-01-28T16:14:42;5.40;99.90
46552;DHT22;32278;51.810;4.712;2023-01-28T16:17:08;5.30;99.90
46552;DHT22;32278;51.810;4.712;2023-01-28T16:19:36;5.20;99.90
46552;DHT22;32278;51.810;4.712;2023-01-28T16:22:02;5.20;99.90
46552;DHT22;32278;51.810;4.712;2023-01-28T16:24:30;5.30;99.90
46552;DHT22;32278;51.810;4.712;2023-01-28T16:29:22;5.20;99.90
46552;DHT22;32278;51.810;4.712;2023-01-28T16:31:47;5.20;99.90
46552;DHT22;32278;51.810;4.712;2023-01-28T16:34:13;5.30;99.90
46552;DHT22;32278;51.810;4.712;2023-01-28T16:36:38;5.20;99.90
46552;DHT22;32278;51.810;4.712;2023-01-28T16:39:04;5.10;99.90
46552;DHT22;32278;51.810;4.712;2023-01-28T16:41:31;5.10;99.90
46552;DHT22;32278;51.810;4.712;2023-01-28T16:43:57;5.00;99.90
46552;DHT22;32278;51.810;4.712;2023-01-28T16:46:25;5.00;99.90
46552;DHT22;32278;51.810;4.712;2023-01-28T16:48:51;5.10;99.90
46552;DHT22;32278;51.810;4.712;2023-01-28T16:51:17;5.10;99.90
46552;DHT22;32278;51.810;4.712;2023-01-28T16:53:43;5.10;99.90
46552;DHT22;32278;51.810;4.712;2023-01-28T16:56:14;5.10;99.90
46552;DHT22;32278;51.810;4.712;2023-01-28T16:58:40;5.00;99.90
46552;DHT22;32278;51.810;4.712;2023-01-28T17:01:05;5.10;99.90
46552;DHT22;32278;51.810;4.712;2023-01-28T17:03:31;4.90;99.90
46552;DHT22;32278;51.810;4.712;2023-01-28T17:05:56;4.90;99.90
46552;DHT22;32278;51.810;4.712;2023-01-28T17:08:22;4.90;99.90
46552;DHT22;32278;51.810;4.712;2023-01-28T17:10:54;4.90;99.90
46552;DHT22;32278;51.810;4.712;2023-01-28T17:13:20;4.90;99.90
46552;DHT22;32278;51.810;4.712;2023-01-28T17:15:45;5.00;99.90
46552;DHT22;32278;51.810;4.712;2023-01-28T17:18:11;5.00;99.90
46552;DHT22;32278;51.810;4.712;2023-01-28T17:20:37;4.80;99.90
46552;DHT22;32278;51.810;4.712;2023-01-28T17:23:11;4.80;99.90
46552;DHT22;32278;51.810;4.712;2023-01-28T17:25:38;4.80;99.90
46552;DHT22;32278;51.810;4.712;2023-01-28T17:28:04;4.80;99.90
46552;DHT22;32278;51.810;4.712;2023-01-28T17:30:30;4.70;99.90
46552;DHT22;32278;51.810;4.712;2023-01-28T17:32:55;4.80;99.90
46552;DHT22;32278;51.810;4.712;2023-01-28T17:35:21;4.80;99.90
46552;DHT22;32278;51.810;4.712;2023-01-28T17:37:46;4.80;99.90
46552;DHT22;32278;51.810;4.712;2023-01-28T17:40:12;4.80;99.90
46552;DHT22;32278;51.810;4.712;2023-01-28T17:42:37;4.80;99.90
46552;DHT22;32278;51.810;4.712;2023-01-28T17:45:03;4.80;99.90
46552;DHT22;32278;51.810;4.712;2023-01-28T17:47:29;4.70;99.90
46552;DHT22;32278;51.810;4.712;2023-01-28T17:49:55;4.90;99.90